createdAt,value
2022-08-25T00:02:02.965Z,3.50
2022-08-25T00:04:30.022Z,3.70
2022-08-25T00:07:02.131Z,3.80
2022-08-25T00:09:31.924Z,3.53
2022-08-25T00:11:59.371Z,3.27
2022-08-25T00:14:29.971Z,2.90
2022-08-25T00:16:57.282Z,3.57
2022-08-25T00:19:28.394Z,2.97
2022-08-25T00:21:55.666Z,4.00
2022-08-25T00:24:22.610Z,3.00
2022-08-25T00:26:54.872Z,4.17
2022-08-25T00:29:22.602Z,3.70
2022-08-25T00:31:49.231Z,4.07
2022-08-25T00:34:20.689Z,3.40
2022-08-25T00:36:48.037Z,2.97
2022-08-25T00:39:14.672Z,4.03
2022-08-25T00:41:43.448Z,3.13
2022-08-25T00:44:12.741Z,3.40
2022-08-25T00:46:43.682Z,3.40
2022-08-25T00:49:29.340Z,3.10
2022-08-25T00:52:18.217Z,3.30
2022-08-25T00:54:50.686Z,3.57
2022-08-25T00:57:25.480Z,3.37
2022-08-25T01:00:03.454Z,3.20
2022-08-25T01:02:30.131Z,3.20
2022-08-25T01:04:56.786Z,3.20
2022-08-25T01:07:23.848Z,3.63
2022-08-25T01:09:52.409Z,3.80
2022-08-25T01:12:19.496Z,3.23
2022-08-25T01:14:46.541Z,2.80
2022-08-25T01:17:14.531Z,3.20
2022-08-25T01:19:41.913Z,2.60
2022-08-25T01:22:10.503Z,3.27
2022-08-25T01:25:01.927Z,3.10
2022-08-25T01:27:31.133Z,2.77
2022-08-25T01:29:58.098Z,3.30
2022-08-25T01:32:25.128Z,2.80
2022-08-25T01:34:51.994Z,3.10
2022-08-25T01:37:19.189Z,3.13
2022-08-25T01:39:46.289Z,2.73
2022-08-25T01:42:15.717Z,3.40
2022-08-25T01:44:44.379Z,2.90
2022-08-25T01:47:12.018Z,3.03
2022-08-25T01:49:38.675Z,2.93
2022-08-25T01:52:33.858Z,2.70
2022-08-25T01:55:00.507Z,2.73
2022-08-25T01:57:31.064Z,2.87
2022-08-25T01:59:59.007Z,3.13
2022-08-25T02:02:26.269Z,3.33
2022-08-25T02:04:53.093Z,2.90
2022-08-25T02:07:20.030Z,2.23
2022-08-25T02:09:46.970Z,2.83
2022-08-25T02:12:13.760Z,3.43
2022-08-25T02:14:40.643Z,3.43
2022-08-25T02:17:09.690Z,2.90
2022-08-25T02:19:36.362Z,3.10
2022-08-25T02:22:03.090Z,3.10
2022-08-25T02:24:29.718Z,3.23
2022-08-25T02:26:56.702Z,3.20
2022-08-25T02:29:23.558Z,2.70
2022-08-25T02:31:50.150Z,3.13
2022-08-25T02:34:16.933Z,3.50
2022-08-25T02:36:44.064Z,2.70
2022-08-25T02:39:12.007Z,3.13
2022-08-25T02:41:39.065Z,2.93
2022-08-25T02:44:07.198Z,3.47
2022-08-25T02:46:34.038Z,3.03
2022-08-25T02:49:01.147Z,3.10
2022-08-25T02:51:29.996Z,3.43
2022-08-25T02:54:01.946Z,2.83
2022-08-25T02:56:30.326Z,3.23
2022-08-25T02:58:57.205Z,2.90
2022-08-25T03:01:28.443Z,3.07
2022-08-25T03:03:57.048Z,3.40
2022-08-25T03:06:24.407Z,3.10
2022-08-25T03:08:52.447Z,3.33
2022-08-25T03:11:19.903Z,3.23
2022-08-25T03:13:46.865Z,4.13
2022-08-25T03:16:14.632Z,3.40
2022-08-25T03:18:42.413Z,3.47
2022-08-25T03:21:11.378Z,2.93
2022-08-25T03:23:38.630Z,3.20
2022-08-25T03:26:23.882Z,3.43
2022-08-25T03:28:50.714Z,3.43
2022-08-25T03:31:17.502Z,4.57
2022-08-25T03:33:44.258Z,3.37
2022-08-25T03:36:14.546Z,3.37
2022-08-25T03:38:41.489Z,3.20
2022-08-25T03:41:16.254Z,2.70
2022-08-25T03:43:43.381Z,3.37
2022-08-25T03:46:16.478Z,3.00
2022-08-25T03:48:43.150Z,3.77
2022-08-25T03:51:09.780Z,3.50
2022-08-25T03:53:36.478Z,3.67
2022-08-25T03:56:03.518Z,3.53
2022-08-25T03:58:30.297Z,3.40
2022-08-25T04:01:00.164Z,3.73
2022-08-25T04:03:27.006Z,3.40
2022-08-25T04:05:53.618Z,3.30
2022-08-25T04:08:20.594Z,3.63
2022-08-25T04:10:48.034Z,3.60
2022-08-25T04:13:14.730Z,3.50
2022-08-25T04:15:44.610Z,3.10
2022-08-25T04:18:11.611Z,3.70
2022-08-25T04:20:40.515Z,3.03
2022-08-25T04:23:11.488Z,3.40
2022-08-25T04:25:43.973Z,3.20
2022-08-25T04:28:12.950Z,3.70
2022-08-25T04:30:43.099Z,3.43
2022-08-25T04:33:09.734Z,3.40
2022-08-25T04:35:36.338Z,4.00
2022-08-25T04:38:02.962Z,3.10
2022-08-25T04:40:29.587Z,3.47
2022-08-25T04:42:56.254Z,3.30
2022-08-25T04:45:22.899Z,4.00
2022-08-25T04:47:54.315Z,3.53
2022-08-25T04:50:21.526Z,3.40
2022-08-25T04:52:49.288Z,3.57
2022-08-25T04:55:16.066Z,3.30
2022-08-25T04:57:43.258Z,3.10
2022-08-25T05:00:11.469Z,3.33
2022-08-25T05:02:38.390Z,3.07
2022-08-25T05:05:06.478Z,3.70
2022-08-25T05:07:33.090Z,3.47
2022-08-25T05:09:59.657Z,3.13
2022-08-25T05:12:26.502Z,3.03
2022-08-25T05:14:55.666Z,3.67
2022-08-25T05:17:22.578Z,3.10
2022-08-25T05:19:49.234Z,3.10
2022-08-25T05:22:15.815Z,3.50
2022-08-25T05:24:42.459Z,3.30
2022-08-25T05:27:09.162Z,3.33
2022-08-25T05:29:35.856Z,2.73
2022-08-25T05:32:02.684Z,3.33
2022-08-25T05:34:30.127Z,2.63
2022-08-25T05:36:59.933Z,3.10
2022-08-25T05:39:26.886Z,2.80
2022-08-25T05:41:53.654Z,2.73
2022-08-25T05:44:21.381Z,2.80
2022-08-25T05:46:48.385Z,2.67
2022-08-25T05:49:15.211Z,2.63
2022-08-25T05:51:41.820Z,2.50
2022-08-25T05:54:08.449Z,2.73
2022-08-25T05:56:35.083Z,2.87
2022-08-25T05:59:04.068Z,2.60
2022-08-25T06:01:52.524Z,2.87
2022-08-25T06:04:20.249Z,2.97
2022-08-25T06:06:47.366Z,3.17
2022-08-25T06:09:14.079Z,2.90
2022-08-25T06:11:41.367Z,2.73
2022-08-25T06:14:09.396Z,2.73
2022-08-25T06:16:36.178Z,2.60
2022-08-25T06:19:03.121Z,2.67
2022-08-25T06:21:29.760Z,2.90
2022-08-25T06:23:56.944Z,2.40
2022-08-25T06:26:23.899Z,3.13
2022-08-25T06:28:51.358Z,2.53
2022-08-25T06:31:18.772Z,2.70
2022-08-25T06:33:45.844Z,2.83
2022-08-25T06:36:12.859Z,2.23
2022-08-25T06:38:39.482Z,2.20
2022-08-25T06:41:07.737Z,2.17
2022-08-25T06:43:34.960Z,2.20
2022-08-25T06:46:13.286Z,2.10
2022-08-25T06:48:40.547Z,2.30
2022-08-25T06:51:09.126Z,2.50
2022-08-25T06:53:40.908Z,2.33
2022-08-25T06:56:07.863Z,2.30
2022-08-25T06:58:34.740Z,2.50
2022-08-25T07:01:20.127Z,2.70
2022-08-25T07:03:48.166Z,2.23
2022-08-25T07:06:16.600Z,2.30
2022-08-25T07:08:46.525Z,2.70
2022-08-25T07:11:16.718Z,2.47
2022-08-25T07:13:45.083Z,2.75
2022-08-25T07:16:12.399Z,2.40
2022-08-25T07:18:39.169Z,2.03
2022-08-25T07:21:08.843Z,2.10
2022-08-25T07:23:36.231Z,2.10
2022-08-25T07:26:36.328Z,2.45
2022-08-25T07:29:04.274Z,1.92
2022-08-25T07:31:32.837Z,2.13
2022-08-25T07:34:18.411Z,1.80
2022-08-25T07:36:45.492Z,1.90
2022-08-25T07:39:12.383Z,2.70
2022-08-25T07:41:42.141Z,2.25
2022-08-25T07:44:11.072Z,1.90
2022-08-25T07:46:38.805Z,2.03
2022-08-25T07:49:12.618Z,2.08
2022-08-25T07:52:04.297Z,1.90
2022-08-25T07:54:34.091Z,2.70
2022-08-25T07:57:02.260Z,2.28
2022-08-25T07:59:29.142Z,2.30
2022-08-25T08:01:55.904Z,2.65
2022-08-25T08:04:22.538Z,2.22
2022-08-25T08:06:49.273Z,2.67
2022-08-25T08:09:16.608Z,2.28
2022-08-25T08:11:53.910Z,2.53
2022-08-25T08:14:21.265Z,2.53
2022-08-25T08:16:48.191Z,2.35
2022-08-25T08:19:15.687Z,2.08
2022-08-25T08:21:42.594Z,2.60
2022-08-25T08:24:19.771Z,2.55
2022-08-25T08:26:59.140Z,2.58
2022-08-25T08:29:26.781Z,2.53
2022-08-25T08:31:53.551Z,2.30
2022-08-25T08:34:20.220Z,2.15
2022-08-25T08:36:51.950Z,2.47
2022-08-25T08:39:18.598Z,2.58
2022-08-25T08:42:18.575Z,1.98
2022-08-25T08:44:45.130Z,2.35
2022-08-25T08:47:14.714Z,1.85
2022-08-25T08:50:10.446Z,2.33
2022-08-25T08:52:49.472Z,1.73
2022-08-25T08:55:21.313Z,2.08
2022-08-25T08:57:51.834Z,2.33
2022-08-25T09:00:18.598Z,2.33
2022-08-25T09:02:59.114Z,1.60
2022-08-25T09:05:29.660Z,1.98
2022-08-25T09:08:12.407Z,2.00
2022-08-25T09:11:03.476Z,2.00
2022-08-25T09:13:55.350Z,1.88
2022-08-25T09:16:51.368Z,1.75
2022-08-25T09:19:41.970Z,2.25
2022-08-25T09:22:35.397Z,2.03
2022-08-25T09:28:36.945Z,2.25
2022-08-25T09:31:14.687Z,1.85
2022-08-25T09:33:41.388Z,1.88
2022-08-25T09:36:09.008Z,1.85
2022-08-25T09:38:36.432Z,1.90
2022-08-25T09:41:04.174Z,1.92
2022-08-25T09:43:37.231Z,2.13
2022-08-25T09:46:14.145Z,1.75
2022-08-25T09:48:56.899Z,2.03
2022-08-25T09:51:42.616Z,2.10
2022-08-25T09:54:13.059Z,2.50
2022-08-25T09:56:57.541Z,1.90
2022-08-25T09:59:36.622Z,2.20
2022-08-25T10:02:29.328Z,1.98
2022-08-25T10:04:56.446Z,2.90
2022-08-25T10:07:28.337Z,2.20
2022-08-25T10:09:58.645Z,2.63
2022-08-25T10:12:33.473Z,1.98
2022-08-25T10:15:00.309Z,2.25
2022-08-25T10:17:30.486Z,1.75
2022-08-25T10:20:19.829Z,1.60
2022-08-25T10:22:48.297Z,1.90
2022-08-25T10:25:28.034Z,1.98
2022-08-25T10:28:22.508Z,1.67
2022-08-25T10:30:51.961Z,1.85
2022-08-25T10:33:33.934Z,1.65
2022-08-25T10:36:16.200Z,1.75
2022-08-25T10:39:01.540Z,1.77
2022-08-25T10:41:46.536Z,1.90
2022-08-25T10:44:51.802Z,1.50
2022-08-25T10:47:47.151Z,1.70
2022-08-25T10:50:32.977Z,1.65
2022-08-25T10:53:34.541Z,1.75
2022-08-25T10:56:18.961Z,1.40
2022-08-25T10:58:57.163Z,1.60
2022-08-25T11:01:32.950Z,2.08
2022-08-25T11:04:36.512Z,1.65
2022-08-25T11:07:30.550Z,1.52
2022-08-25T11:10:14.219Z,1.38
2022-08-25T11:12:55.877Z,1.63
2022-08-25T11:15:50.254Z,1.45
2022-08-25T11:18:31.797Z,1.70
2022-08-25T11:21:12.763Z,2.03
2022-08-25T11:23:44.443Z,1.45
2022-08-25T11:26:18.947Z,1.95
2022-08-25T11:29:00.801Z,1.20
2022-08-25T11:31:28.158Z,1.30
2022-08-25T11:33:56.267Z,1.35
2022-08-25T11:36:35.723Z,1.58
2022-08-25T11:39:15.629Z,1.40
2022-08-25T11:42:19.657Z,1.13
2022-08-25T11:45:12.972Z,1.10
2022-08-25T11:47:55.912Z,1.50
2022-08-25T11:50:31.669Z,1.40
2022-08-25T11:53:19.135Z,1.20
2022-08-25T11:55:56.233Z,1.58
2022-08-25T11:58:31.659Z,1.38
2022-08-25T12:01:01.299Z,1.13
2022-08-25T12:03:37.177Z,1.10
2022-08-25T12:06:59.003Z,1.40
2022-08-25T12:09:25.661Z,1.40
2022-08-25T12:11:58.325Z,1.08
2022-08-25T12:14:24.920Z,1.50
2022-08-25T12:16:55.458Z,1.20
2022-08-25T12:19:25.246Z,1.00
2022-08-25T12:21:54.423Z,1.10
2022-08-25T12:24:48.065Z,1.02
2022-08-25T12:27:33.638Z,1.13
2022-08-25T12:30:20.945Z,1.13
2022-08-25T12:33:07.890Z,1.00
2022-08-25T12:36:00.082Z,1.30
2022-08-25T12:38:32.853Z,1.27
2022-08-25T12:41:09.926Z,1.17
2022-08-25T12:43:40.644Z,1.00
2022-08-25T12:46:21.631Z,1.00
2022-08-25T12:49:00.369Z,1.23
2022-08-25T12:51:33.018Z,0.90
2022-08-25T12:54:34.113Z,1.00
2022-08-25T12:57:03.998Z,0.90
2022-08-25T12:59:45.815Z,0.95
2022-08-25T13:02:40.100Z,1.30
2022-08-25T13:05:42.654Z,1.13
2022-08-25T13:08:48.122Z,1.00
2022-08-25T13:11:20.348Z,1.25
2022-08-25T13:14:11.133Z,0.90
2022-08-25T13:16:37.791Z,1.10
2022-08-25T13:19:06.982Z,1.20
2022-08-25T13:21:37.578Z,0.90
2022-08-25T13:24:09.147Z,1.00
2022-08-25T13:26:48.565Z,1.00
2022-08-25T13:29:20.991Z,1.10
2022-08-25T13:31:59.855Z,0.90
2022-08-25T13:34:34.788Z,0.98
2022-08-25T13:37:31.419Z,1.00
2022-08-25T13:40:29.381Z,1.00
2022-08-25T13:43:02.667Z,0.95
2022-08-25T13:45:41.466Z,1.00
2022-08-25T13:48:22.520Z,1.25
2022-08-25T13:50:52.011Z,0.90
2022-08-25T13:53:25.556Z,1.30
2022-08-25T13:55:57.430Z,1.05
2022-08-25T13:58:45.296Z,0.98
2022-08-25T14:01:22.903Z,1.20
2022-08-25T14:04:25.227Z,1.10
2022-08-25T14:07:13.255Z,1.40
2022-08-25T14:09:53.603Z,1.00
2022-08-25T14:12:32.915Z,1.10
2022-08-25T14:15:08.781Z,1.25
2022-08-25T14:17:40.132Z,1.20
2022-08-25T14:20:28.768Z,1.25
2022-08-25T14:23:04.541Z,0.98
2022-08-25T14:25:36.063Z,1.02
2022-08-25T14:28:16.346Z,1.00
2022-08-25T14:30:51.807Z,1.30
2022-08-25T14:33:21.267Z,1.10
2022-08-25T14:35:49.883Z,1.10
2022-08-25T14:38:19.557Z,1.02
2022-08-25T14:40:48.007Z,1.00
2022-08-25T14:43:15.326Z,1.10
2022-08-25T14:45:45.325Z,1.48
2022-08-25T14:48:24.841Z,1.20
2022-08-25T14:50:53.127Z,1.30
2022-08-25T14:53:19.950Z,1.17
2022-08-25T14:55:46.735Z,1.25
2022-08-25T14:58:13.920Z,1.45
2022-08-25T15:00:43.845Z,1.42
2022-08-25T15:03:21.550Z,1.20
2022-08-25T15:05:48.197Z,1.08
2022-08-25T15:08:33.633Z,1.02
2022-08-25T15:11:00.541Z,1.02
2022-08-25T15:13:27.431Z,1.08
2022-08-25T15:15:55.106Z,1.10
2022-08-25T15:18:25.712Z,1.10
2022-08-25T15:20:52.480Z,1.00
2022-08-25T15:23:19.472Z,1.17
2022-08-25T15:25:47.992Z,1.10
2022-08-25T15:28:17.151Z,1.30
2022-08-25T15:30:45.884Z,1.10
2022-08-25T15:33:13.513Z,1.30
2022-08-25T15:35:40.802Z,1.45
2022-08-25T15:38:08.199Z,1.00
2022-08-25T15:40:37.391Z,1.25
2022-08-25T15:43:04.624Z,1.13
2022-08-25T15:45:31.933Z,1.20
2022-08-25T15:47:58.588Z,1.13
2022-08-25T15:50:26.750Z,1.50
2022-08-25T15:52:53.578Z,1.10
2022-08-25T15:55:20.891Z,1.30
2022-08-25T15:57:49.671Z,1.00
2022-08-25T16:00:17.909Z,1.10
2022-08-25T16:02:45.605Z,1.10
2022-08-25T16:05:13.718Z,1.20
2022-08-25T16:07:43.208Z,1.40
2022-08-25T16:10:12.557Z,1.30
2022-08-25T16:12:39.957Z,1.45
2022-08-25T16:15:10.049Z,1.30
2022-08-25T16:17:40.794Z,1.58
2022-08-25T16:20:13.937Z,1.35
2022-08-25T16:22:41.201Z,1.20
2022-08-25T16:25:08.358Z,1.20
2022-08-25T16:27:37.793Z,1.13
2022-08-25T16:30:07.398Z,1.23
2022-08-25T16:32:34.731Z,1.38
2022-08-25T16:35:02.571Z,1.25
2022-08-25T16:37:29.736Z,1.25
2022-08-25T16:39:57.236Z,1.48
2022-08-25T16:42:24.169Z,1.40
2022-08-25T16:44:53.977Z,1.52
2022-08-25T16:47:20.955Z,1.27
2022-08-25T16:49:53.880Z,1.55
2022-08-25T16:52:39.054Z,1.42
2022-08-25T16:55:14.257Z,1.40
2022-08-25T16:57:45.253Z,1.50
2022-08-25T17:00:17.551Z,1.42
2022-08-25T17:02:44.252Z,1.77
2022-08-25T17:05:12.429Z,1.30
2022-08-25T17:07:39.457Z,1.58
2022-08-25T17:10:07.142Z,1.63
2022-08-25T17:12:39.489Z,1.33
2022-08-25T17:15:07.578Z,1.70
2022-08-25T17:17:36.242Z,1.70
2022-08-25T17:20:04.909Z,1.90
2022-08-25T17:22:31.951Z,1.52
2022-08-25T17:25:01.021Z,1.40
2022-08-25T17:27:28.273Z,1.67
2022-08-25T17:29:55.788Z,1.88
2022-08-25T17:32:23.107Z,1.73
2022-08-25T17:34:57.074Z,1.58
2022-08-25T17:37:24.428Z,2.40
2022-08-25T17:39:56.806Z,1.65
2022-08-25T17:42:31.707Z,1.52
2022-08-25T17:44:58.463Z,1.80
2022-08-25T17:47:26.961Z,1.33
2022-08-25T17:49:54.004Z,1.90
2022-08-25T17:52:25.002Z,1.65
2022-08-25T17:54:52.573Z,1.60
2022-08-25T17:57:19.748Z,1.95
2022-08-25T17:59:47.919Z,1.63
2022-08-25T18:02:14.609Z,1.70
2022-08-25T18:04:41.522Z,1.92
2022-08-25T18:07:08.230Z,1.95
2022-08-25T18:09:34.966Z,1.90
2022-08-25T18:12:01.693Z,1.65
2022-08-25T18:14:30.056Z,2.25
2022-08-25T18:16:57.550Z,1.55
2022-08-25T18:19:24.187Z,1.92
2022-08-25T18:21:52.400Z,2.03
2022-08-25T18:24:19.305Z,1.80
2022-08-25T18:26:45.958Z,2.38
2022-08-25T18:29:13.209Z,1.48
2022-08-25T18:31:41.747Z,1.80
2022-08-25T18:34:11.042Z,1.63
2022-08-25T18:36:38.785Z,1.65
2022-08-25T18:39:25.204Z,2.50
2022-08-25T18:41:51.830Z,1.95
2022-08-25T18:44:18.584Z,1.92
2022-08-25T18:46:46.167Z,1.75
2022-08-25T18:49:15.976Z,1.98
2022-08-25T18:51:44.534Z,2.05
2022-08-25T18:54:23.075Z,1.85
2022-08-25T18:56:54.516Z,2.30
2022-08-25T18:59:23.499Z,2.13
2022-08-25T19:01:51.154Z,1.98
2022-08-25T19:04:17.824Z,1.73
2022-08-25T19:06:44.671Z,1.60
2022-08-25T19:09:11.740Z,1.70
2022-08-25T19:11:38.574Z,1.75
2022-08-25T19:14:12.450Z,1.73
2022-08-25T19:16:42.461Z,1.75
2022-08-25T19:19:13.230Z,1.88
2022-08-25T19:21:41.598Z,1.65
2022-08-25T19:24:10.802Z,1.90
2022-08-25T19:26:39.455Z,2.75
2022-08-25T19:29:12.406Z,1.77
2022-08-25T19:31:40.638Z,2.00
2022-08-25T19:34:11.914Z,2.22
2022-08-25T19:36:39.245Z,1.73
2022-08-25T19:39:09.843Z,2.00
2022-08-25T19:41:36.657Z,2.40
2022-08-25T19:44:03.928Z,2.10
2022-08-25T19:46:36.438Z,2.00
2022-08-25T19:49:11.900Z,2.07
2022-08-25T19:51:42.083Z,2.27
2022-08-25T19:54:13.011Z,2.20
2022-08-25T19:56:44.018Z,2.37
2022-08-25T19:59:25.418Z,2.47
2022-08-25T20:01:52.962Z,2.87
2022-08-25T20:04:20.030Z,2.10
2022-08-25T20:06:48.434Z,2.40
2022-08-25T20:09:21.131Z,2.30
2022-08-25T20:12:02.893Z,2.23
2022-08-25T20:14:29.623Z,2.83
2022-08-25T20:16:56.362Z,2.43
2022-08-25T20:19:22.952Z,2.80
2022-08-25T20:21:49.566Z,2.60
2022-08-25T20:24:34.650Z,2.47
2022-08-25T20:27:01.382Z,2.63
2022-08-25T20:29:28.001Z,2.80
2022-08-25T20:31:54.618Z,2.33
2022-08-25T20:34:23.138Z,2.27
2022-08-25T20:36:50.618Z,2.50
2022-08-25T20:39:17.958Z,2.43
2022-08-25T20:41:45.269Z,2.27
2022-08-25T20:44:17.613Z,2.37
2022-08-25T20:46:44.761Z,2.67
2022-08-25T20:49:12.703Z,2.80
2022-08-25T20:51:40.301Z,3.33
2022-08-25T20:54:07.462Z,2.97
2022-08-25T20:56:34.146Z,3.33
2022-08-25T20:59:01.922Z,3.50
2022-08-25T21:01:39.705Z,3.17
2022-08-25T21:04:10.033Z,3.10
2022-08-25T21:06:41.712Z,2.77
2022-08-25T21:09:15.893Z,3.50
2022-08-25T21:11:44.212Z,2.83
2022-08-25T21:14:13.088Z,2.87
2022-08-25T21:16:41.340Z,3.03
2022-08-25T21:19:09.057Z,3.43
2022-08-25T21:21:38.710Z,3.33
2022-08-25T21:24:09.273Z,3.80
2022-08-25T21:26:37.703Z,4.43
2022-08-25T21:29:15.768Z,4.83
2022-08-25T21:31:43.097Z,5.87
2022-08-25T21:34:11.564Z,5.70
2022-08-25T21:36:39.672Z,6.20
2022-08-25T21:39:06.626Z,6.70
2022-08-25T21:41:35.447Z,7.57
2022-08-25T21:44:03.895Z,8.47
2022-08-25T21:46:33.399Z,7.30
2022-08-25T21:49:01.518Z,9.90
2022-08-25T21:51:40.776Z,10.77
2022-08-25T21:54:11.688Z,11.47
2022-08-25T21:56:50.953Z,14.03
2022-08-25T21:59:24.497Z,13.40
2022-08-25T22:01:55.757Z,13.20
2022-08-25T22:04:22.805Z,15.13
2022-08-25T22:06:50.366Z,16.10
2022-08-25T22:09:17.501Z,14.83
2022-08-25T22:11:46.261Z,11.53
2022-08-25T22:14:14.081Z,11.67
2022-08-25T22:16:42.323Z,10.50
2022-08-25T22:19:12.075Z,10.10
2022-08-25T22:21:41.790Z,11.47
2022-08-25T22:24:08.981Z,14.70
2022-08-25T22:26:36.394Z,15.30
2022-08-25T22:29:04.329Z,20.60
2022-08-25T22:31:33.653Z,25.90
2022-08-25T22:34:01.229Z,25.87
2022-08-25T22:36:34.599Z,28.90
2022-08-25T22:39:01.821Z,30.37
2022-08-25T22:41:29.993Z,28.63
2022-08-25T22:43:57.638Z,29.23
2022-08-25T22:46:27.919Z,32.87
2022-08-25T22:48:55.997Z,33.57
2022-08-25T22:51:25.434Z,33.40
2022-08-25T22:53:53.090Z,34.40
2022-08-25T22:56:30.811Z,36.87
2022-08-25T22:59:03.944Z,40.23
2022-08-25T23:01:31.996Z,40.43
2022-08-25T23:04:03.140Z,40.37
2022-08-25T23:06:30.134Z,39.97
2022-08-25T23:08:57.598Z,40.50
2022-08-25T23:11:24.943Z,41.17
2022-08-25T23:13:55.409Z,42.23
2022-08-25T23:16:22.439Z,44.17
2022-08-25T23:18:49.477Z,44.53
2022-08-25T23:21:38.005Z,45.77
2022-08-25T23:24:10.716Z,44.43
2022-08-25T23:26:42.501Z,46.83
2022-08-25T23:29:17.945Z,44.00
2022-08-25T23:31:46.039Z,46.40
2022-08-25T23:34:13.383Z,44.07
2022-08-25T23:36:40.430Z,45.30
2022-08-25T23:39:07.787Z,43.27
2022-08-25T23:41:35.386Z,43.23
2022-08-25T23:44:05.237Z,42.73
2022-08-25T23:46:34.923Z,43.10
2022-08-25T23:49:03.317Z,42.50
2022-08-25T23:51:34.086Z,43.87
2022-08-25T23:54:07.051Z,42.17
2022-08-25T23:56:37.200Z,41.90
2022-08-25T23:59:10.639Z,42.97
